createdAt,value
2023-02-24T17:48:37.658Z,7.00
2023-02-24T17:51:04.163Z,9.25
2023-02-24T17:53:31.217Z,7.10
2023-02-24T17:56:02.869Z,9.52
2023-02-24T17:58:29.698Z,10.32
2023-02-24T18:00:56.217Z,9.70
2023-02-24T18:03:23.077Z,9.10
2023-02-24T18:05:57.216Z,9.95
2023-02-24T18:08:23.772Z,10.82
2023-02-24T18:10:50.294Z,5.97
2023-02-24T18:13:16.874Z,9.70
2023-02-24T18:15:43.466Z,8.25
2023-02-24T18:18:10.279Z,9.25
2023-02-24T18:20:36.725Z,9.38
2023-02-24T18:23:04.775Z,11.18
2023-02-24T18:25:31.525Z,10.50
2023-02-24T18:27:58.171Z,12.35
2023-02-24T18:30:24.664Z,11.40
2023-02-24T18:32:51.965Z,11.45
2023-02-24T18:35:21.923Z,10.52
2023-02-24T18:37:53.230Z,9.30
2023-02-24T18:40:21.170Z,12.63
2023-02-24T18:42:48.592Z,13.32
2023-02-24T18:45:15.076Z,14.60
2023-02-24T18:47:41.588Z,17.85
2023-02-24T18:50:09.026Z,18.95
2023-02-24T18:52:35.531Z,18.23
2023-02-24T18:55:02.101Z,20.92
2023-02-24T18:57:30.068Z,16.75
2023-02-24T18:59:56.650Z,16.17
2023-02-24T19:02:23.115Z,14.10
2023-02-24T19:04:49.679Z,18.65
2023-02-24T19:07:16.375Z,16.75
2023-02-24T19:09:42.950Z,16.33
2023-02-24T19:12:09.522Z,21.02
2023-02-24T19:14:37.540Z,20.50
2023-02-24T19:17:04.590Z,20.88
2023-02-24T19:19:31.186Z,18.10
2023-02-24T19:21:57.740Z,19.10
2023-02-24T19:24:24.401Z,15.93
2023-02-24T19:26:52.357Z,20.30
2023-02-24T19:29:20.527Z,17.13
2023-02-24T19:31:54.022Z,15.63
2023-02-24T19:34:21.058Z,14.98
2023-02-24T19:36:47.646Z,13.57
2023-02-24T19:39:15.449Z,14.88
2023-02-24T19:41:42.593Z,15.82
2023-02-24T19:44:10.274Z,15.98
2023-02-24T19:46:37.168Z,14.40
2023-02-24T19:49:05.107Z,15.00
2023-02-24T19:51:31.888Z,18.75
2023-02-24T19:54:00.033Z,16.08
2023-02-24T19:56:27.514Z,18.13
2023-02-24T19:58:54.698Z,14.40
2023-02-24T20:01:21.841Z,12.30
2023-02-24T20:03:49.034Z,21.73
2023-02-24T20:06:21.464Z,57.03
2023-02-24T20:08:48.191Z,22.83
2023-02-24T20:11:14.961Z,17.77
2023-02-24T20:13:41.562Z,21.15
2023-02-24T20:16:09.251Z,20.73
2023-02-24T20:18:35.995Z,21.88
2023-02-24T20:21:03.053Z,21.23
2023-02-24T20:23:34.290Z,18.88
2023-02-24T20:26:01.569Z,20.05
2023-02-24T20:28:28.558Z,16.55
2023-02-24T20:30:55.705Z,19.15
2023-02-24T20:33:23.457Z,19.52
2023-02-24T20:35:50.008Z,14.90
2023-02-24T20:38:16.642Z,18.58
2023-02-24T20:40:44.614Z,19.83
2023-02-24T20:43:11.285Z,18.65
2023-02-24T20:45:38.665Z,17.38
2023-02-24T20:48:05.208Z,19.15
2023-02-24T20:50:31.706Z,19.20
2023-02-24T20:52:58.287Z,17.10
2023-02-24T20:55:24.923Z,19.92
2023-02-24T20:57:52.787Z,18.90
2023-02-24T21:00:19.813Z,19.73
2023-02-24T21:02:46.430Z,18.85
2023-02-24T21:05:20.888Z,21.50
2023-02-24T21:07:48.031Z,17.70
2023-02-24T21:10:14.560Z,20.65
2023-02-24T21:12:41.315Z,19.40
2023-02-24T21:15:12.324Z,17.38
2023-02-24T21:17:39.327Z,16.17
2023-02-24T21:20:06.427Z,17.70
2023-02-24T21:22:33.457Z,18.13
2023-02-24T21:25:00.041Z,14.90
2023-02-24T21:27:26.786Z,15.75
2023-02-24T21:29:53.553Z,12.02
2023-02-24T21:32:21.540Z,8.98
2023-02-24T21:34:48.314Z,10.20
2023-02-24T21:37:14.761Z,11.57
2023-02-24T21:39:41.393Z,10.80
2023-02-24T21:42:07.852Z,10.50
2023-02-24T21:44:34.443Z,12.35
2023-02-24T21:47:00.986Z,11.38
2023-02-24T21:49:30.216Z,10.23
2023-02-24T21:51:56.733Z,12.60
2023-02-24T21:54:23.485Z,10.32
2023-02-24T21:56:49.926Z,10.27
2023-02-24T21:59:16.417Z,12.57
2023-02-24T22:01:43.819Z,10.50
2023-02-24T22:04:11.267Z,11.35
2023-02-24T22:06:39.532Z,10.10
2023-02-24T22:09:06.718Z,10.20
2023-02-24T22:11:35.317Z,8.27
2023-02-24T22:14:01.886Z,10.15
2023-02-24T22:16:28.533Z,10.82
2023-02-24T22:18:55.291Z,12.20
2023-02-24T22:21:22.733Z,11.73
2023-02-24T22:23:52.238Z,9.48
2023-02-24T22:26:19.405Z,10.13
2023-02-24T22:28:49.698Z,10.27
2023-02-24T22:31:17.570Z,7.50
2023-02-24T22:33:44.237Z,11.70
2023-02-24T22:36:11.510Z,8.98
2023-02-24T22:38:38.830Z,7.47
2023-02-24T22:41:07.964Z,10.43
2023-02-24T22:43:35.073Z,9.20
2023-02-24T22:46:04.080Z,8.50
2023-02-24T22:48:31.001Z,8.38
2023-02-24T22:50:58.314Z,7.32
2023-02-24T22:53:24.924Z,8.00
2023-02-24T22:55:51.976Z,9.20
2023-02-24T22:58:20.886Z,8.82
2023-02-24T23:00:47.869Z,8.80
2023-02-24T23:03:14.615Z,9.75
2023-02-24T23:05:41.270Z,10.07
2023-02-24T23:08:07.788Z,12.45
2023-02-24T23:10:34.571Z,11.32
2023-02-24T23:13:01.008Z,6.40
2023-02-24T23:15:28.930Z,8.55
2023-02-24T23:17:55.397Z,8.80
2023-02-24T23:20:21.886Z,12.57
2023-02-24T23:22:52.493Z,7.75
2023-02-24T23:25:19.983Z,10.98
2023-02-24T23:27:46.426Z,9.18
2023-02-24T23:30:13.097Z,8.73
2023-02-24T23:32:43.799Z,8.25
2023-02-24T23:35:11.502Z,9.70
2023-02-24T23:37:38.248Z,11.68
2023-02-24T23:40:09.908Z,11.70
2023-02-24T23:42:36.393Z,10.90
2023-02-24T23:45:04.034Z,8.80
2023-02-24T23:47:30.586Z,12.63
2023-02-24T23:49:58.941Z,10.52
2023-02-24T23:52:25.483Z,13.20
2023-02-24T23:54:52.769Z,12.40
2023-02-24T23:57:19.791Z,14.05
2023-02-24T23:59:46.482Z,11.23
